Time;durP1;ratioP1;P1;durP2;ratioP2;P2;SDS_P1;SDS_P2;PMS_P1;PMS_P2;Temp;Humidity;BMP_temperature;BMP_pressure;BME280_temperature;BME280_humidity;BME280_pressure;Samples;Min_cycle;Max_cycle;Signal;HPM_P1;HPM_P2
2022/05/23 00:01:46;;;;;;;0.60;0.10;;;18.70;99.90;;;;;;5079408;28;20469;-79
2022/05/23 00:04:14;;;;;;;0.60;0.10;;;18.70;99.90;;;;;;5082346;28;20568;-79
2022/05/23 00:06:44;;;;;;;0.60;0.10;;;18.60;99.90;;;;;;5081056;28;20450;-79
2022/05/23 00:09:13;;;;;;;0.60;0.10;;;18.60;99.90;;;;;;5078039;28;20448;-79
2022/05/23 00:11:41;;;;;;;0.60;0.20;;;18.60;99.90;;;;;;5081163;28;20434;-79
2022/05/23 00:14:09;;;;;;;0.60;0.10;;;18.50;99.90;;;;;;5082467;28;20467;-79
2022/05/23 00:16:40;;;;;;;0.60;0.20;;;18.50;99.90;;;;;;5080723;28;20440;-79
2022/05/23 00:19:09;;;;;;;0.60;0.10;;;18.50;99.90;;;;;;5083435;28;20488;-79
2022/05/23 00:21:38;;;;;;;0.67;0.30;;;18.50;99.90;;;;;;5083427;28;20501;-79
2022/05/23 00:24:08;;;;;;;0.60;0.10;;;18.50;99.90;;;;;;5083437;28;20465;-79
2022/05/23 00:26:36;;;;;;;0.60;0.10;;;18.60;99.90;;;;;;5084499;28;20450;-79
2022/05/23 00:29:04;;;;;;;0.60;0.20;;;18.60;99.90;;;;;;5089778;28;20473;-81
2022/05/23 00:31:33;;;;;;;0.60;0.10;;;18.50;99.90;;;;;;5089610;28;20446;-79
2022/05/23 00:36:47;;;;;;;0.60;0.10;;;18.60;99.90;;;;;;5081771;28;20445;-80
2022/05/23 00:39:16;;;;;;;0.60;0.20;;;17.50;99.90;;;;;;5077612;28;20447;-79
2022/05/23 00:44:34;;;;;;;0.60;0.10;;;18.40;99.90;;;;;;5075700;28;20568;-79
2022/05/23 00:47:15;;;;;;;0.60;0.10;;;18.40;99.90;;;;;;5079800;28;20579;-80
2022/05/23 00:49:43;;;;;;;0.60;0.20;;;18.50;99.90;;;;;;5082647;28;20485;-79
2022/05/23 00:52:16;;;;;;;0.60;0.10;;;18.50;99.90;;;;;;5084810;28;20540;-79
2022/05/23 00:54:49;;;;;;;0.60;0.10;;;18.60;99.90;;;;;;5086914;28;20445;-79
2022/05/23 00:57:21;;;;;;;0.60;0.10;;;18.60;99.90;;;;;;5077717;28;20537;-78
2022/05/23 00:59:50;;;;;;;0.60;0.10;;;18.60;99.90;;;;;;5079172;28;20442;-79
2022/05/23 01:02:20;;;;;;;0.60;0.10;;;18.60;99.90;;;;;;5081554;28;20645;-79
2022/05/23 01:04:50;;;;;;;0.60;0.10;;;18.60;99.90;;;;;;5080255;28;20487;-79
2022/05/23 01:07:18;;;;;;;0.60;0.10;;;18.60;99.90;;;;;;5077600;28;20438;-79
2022/05/23 01:09:49;;;;;;;0.60;0.10;;;18.60;99.90;;;;;;5073510;28;20453;-79
2022/05/23 01:12:16;;;;;;;0.60;0.10;;;18.40;99.90;;;;;;5073512;28;20483;-79
2022/05/23 01:14:48;;;;;;;0.60;0.20;;;18.40;99.90;;;;;;5076779;28;20469;-80
2022/05/23 01:17:17;;;;;;;0.60;0.10;;;18.30;99.90;;;;;;5079840;28;20594;-80
2022/05/23 01:19:45;;;;;;;0.60;0.20;;;18.20;99.90;;;;;;5073298;28;20481;-79
2022/05/23 01:22:19;;;;;;;0.70;0.20;;;18.10;99.90;;;;;;5079948;28;20452;-79
2022/05/23 01:25:00;;;;;;;0.60;0.20;;;18.10;99.90;;;;;;5079637;28;20437;-79
2022/05/23 01:27:31;;;;;;;0.60;0.10;;;18.10;99.90;;;;;;5082986;28;20453;-79
2022/05/23 01:29:59;;;;;;;0.60;0.10;;;18.00;99.90;;;;;;5078118;28;20500;-78
2022/05/23 01:32:27;;;;;;;0.60;0.20;;;18.00;99.90;;;;;;5085360;28;20480;-79
2022/05/23 01:34:55;;;;;;;0.60;0.10;;;17.90;99.90;;;;;;5104798;28;20969;-79
2022/05/23 01:37:23;;;;;;;0.60;0.13;;;17.90;99.90;;;;;;5103756;28;20531;-80
2022/05/23 01:39:51;;;;;;;0.60;0.17;;;17.90;99.90;;;;;;5100907;28;20823;-79
2022/05/23 01:42:19;;;;;;;0.60;0.30;;;17.80;99.90;;;;;;5102520;28;20476;-81
2022/05/23 01:44:48;;;;;;;0.60;0.20;;;17.80;99.90;;;;;;5102868;28;20440;-80
2022/05/23 01:47:20;;;;;;;0.60;0.20;;;17.80;99.90;;;;;;5101862;28;20436;-79
2022/05/23 01:49:48;;;;;;;0.60;0.20;;;17.80;99.90;;;;;;5101987;28;20443;-78
2022/05/23 01:52:16;;;;;;;0.60;0.10;;;17.90;99.90;;;;;;5105270;28;20532;-77
2022/05/23 01:54:44;;;;;;;0.60;0.10;;;17.80;99.90;;;;;;5102083;28;20447;-78
2022/05/23 01:57:13;;;;;;;0.60;0.10;;;17.90;99.90;;;;;;5103031;28;21112;-78
2022/05/23 02:02:28;;;;;;;0.60;0.10;;;18.00;99.90;;;;;;5102852;28;20460;-78
2022/05/23 02:04:56;;;;;;;0.60;0.20;;;18.00;99.90;;;;;;5090257;28;20788;-79
2022/05/23 02:07:24;;;;;;;0.60;0.20;;;18.00;99.90;;;;;;5080621;28;20442;-79
2022/05/23 02:09:52;;;;;;;0.60;0.10;;;18.00;99.90;;;;;;5078998;28;20842;-78
2022/05/23 02:12:20;;;;;;;0.60;0.10;;;18.00;99.90;;;;;;5076636;28;20465;-78
2022/05/23 02:14:49;;;;;;;0.60;0.10;;;;;;;;;;5075828;28;20449;-78
2022/05/23 02:17:17;;;;;;;0.60;0.10;;;18.00;99.90;;;;;;5079989;28;20533;-79
2022/05/23 02:19:48;;;;;;;0.60;0.10;;;18.00;99.90;;;;;;5085683;28;20433;-79
2022/05/23 02:22:15;;;;;;;0.60;0.10;;;18.00;99.90;;;;;;5094837;28;20460;-79
2022/05/23 02:24:43;;;;;;;0.60;0.10;;;18.00;99.90;;;;;;5094193;28;20452;-78
2022/05/23 02:27:11;;;;;;;0.60;0.10;;;18.00;99.90;;;;;;5096512;28;20476;-78
2022/05/23 02:29:39;;;;;;;0.97;0.67;;;17.90;99.90;;;;;;5103380;28;20452;-78
2022/05/23 02:32:10;;;;;;;0.60;0.10;;;17.90;99.90;;;;;;5103836;28;20464;-79
2022/05/23 02:34:38;;;;;;;0.60;0.10;;;17.90;99.90;;;;;;5105233;22;20495;-77
2022/05/23 02:37:07;;;;;;;0.60;0.10;;;17.90;99.90;;;;;;5080252;28;20441;-76
2022/05/23 02:39:35;;;;;;;0.60;0.10;;;17.90;99.90;;;;;;5091004;28;20767;-75
2022/05/23 02:42:03;;;;;;;0.60;0.10;;;17.90;99.90;;;;;;5088651;28;20449;-77
2022/05/23 02:44:31;;;;;;;0.60;0.13;;;17.90;99.90;;;;;;5097811;28;21099;-76
2022/05/23 02:46:59;;;;;;;0.60;0.10;;;17.90;99.90;;;;;;5113648;28;20489;-76
2022/05/23 02:49:27;;;;;;;0.60;0.10;;;17.90;99.90;;;;;;5113700;28;20445;-76
2022/05/23 02:51:55;;;;;;;0.60;0.10;;;17.80;99.90;;;;;;5113679;28;20547;-76
2022/05/23 02:54:24;;;;;;;0.60;0.20;;;17.70;99.90;;;;;;5114305;28;20784;-76
2022/05/23 02:56:52;;;;;;;0.60;0.20;;;17.70;99.90;;;;;;5113671;28;20441;-76
2022/05/23 02:59:20;;;;;;;0.60;0.10;;;17.60;99.90;;;;;;5113544;28;20432;-76
2022/05/23 03:04:34;;;;;;;0.60;0.10;;;17.50;99.90;;;;;;5107358;28;20886;-76
2022/05/23 03:07:02;;;;;;;0.60;0.10;;;17.50;99.90;;;;;;5092627;28;21020;-76
2022/05/23 03:09:32;;;;;;;0.60;0.10;;;17.50;99.90;;;;;;5093286;28;20451;-76
2022/05/23 03:12:00;;;;;;;0.60;0.10;;;17.50;99.90;;;;;;5093066;28;20810;-77
2022/05/23 03:14:29;;;;;;;0.60;0.10;;;17.40;99.90;;;;;;5091826;28;20781;-74
2022/05/23 03:17:01;;;;;;;0.60;0.10;;;17.40;99.90;;;;;;5092345;28;20453;-75
2022/05/23 03:19:28;;;;;;;0.60;0.10;;;17.30;99.90;;;;;;5092587;28;20445;-75
2022/05/23 03:27:29;;;;;;;0.60;0.10;;;17.00;99.90;;;;;;5105159;28;20482;-76
2022/05/23 03:29:56;;;;;;;0.60;0.10;;;17.00;99.90;;;;;;5113337;28;20443;-75
2022/05/23 03:32:24;;;;;;;0.60;0.10;;;16.90;99.90;;;;;;5112862;28;20436;-76
2022/05/23 03:34:52;;;;;;;0.60;0.10;;;16.90;99.90;;;;;;5112536;28;20479;-76
2022/05/23 03:37:21;;;;;;;0.60;0.10;;;16.90;99.90;;;;;;5112781;28;20432;-76
2022/05/23 03:39:50;;;;;;;0.60;0.10;;;16.90;99.90;;;;;;5127422;28;20524;-75
2022/05/23 03:42:18;;;;;;;0.60;0.10;;;16.90;99.90;;;;;;5117149;28;20505;-76
2022/05/23 03:44:46;;;;;;;0.60;0.10;;;16.90;99.90;;;;;;5108353;28;20480;-76
2022/05/23 03:47:14;;;;;;;0.60;0.10;;;16.90;99.90;;;;;;5091265;28;20998;-76
2022/05/23 03:49:42;;;;;;;0.60;0.10;;;16.90;99.90;;;;;;5092513;28;20970;-76
2022/05/23 03:52:10;;;;;;;0.60;0.10;;;16.90;99.90;;;;;;5092312;28;20449;-76
2022/05/23 03:54:37;;;;;;;0.60;0.20;;;17.00;99.90;;;;;;5093315;28;20471;-75
2022/05/23 03:57:07;;;;;;;0.60;0.10;;;17.00;99.90;;;;;;5092153;28;20441;-76
2022/05/23 03:59:37;;;;;;;0.60;0.10;;;17.00;99.90;;;;;;5092495;28;20461;-76
2022/05/23 04:02:05;;;;;;;0.60;0.10;;;17.10;99.90;;;;;;5096366;28;20456;-77
2022/05/23 04:04:33;;;;;;;0.60;0.10;;;17.20;99.90;;;;;;5112425;28;20456;-77
2022/05/23 04:07:08;;;;;;;0.60;0.10;;;17.20;99.90;;;;;;5111833;28;20482;-77
2022/05/23 04:09:36;;;;;;;0.60;0.10;;;17.20;99.90;;;;;;5112716;28;20448;-77
2022/05/23 04:12:05;;;;;;;0.60;0.10;;;17.20;99.90;;;;;;5113860;28;20444;-77
2022/05/23 04:14:34;;;;;;;0.60;0.10;;;17.20;99.90;;;;;;5112288;28;20540;-78
2022/05/23 04:17:02;;;;;;;0.60;0.10;;;17.30;99.90;;;;;;5112806;28;20809;-77
2022/05/23 04:19:32;;;;;;;0.60;0.10;;;17.30;99.90;;;;;;5118901;28;20462;-77
2022/05/23 04:22:00;;;;;;;0.60;0.20;;;17.30;99.90;;;;;;5118650;28;20562;-77
2022/05/23 04:24:28;;;;;;;0.60;0.10;;;17.40;99.90;;;;;;5114152;28;20452;-77
2022/05/23 04:26:58;;;;;;;0.60;0.10;;;17.40;99.90;;;;;;5114655;28;20489;-76
2022/05/23 04:29:26;;;;;;;0.60;0.10;;;17.40;99.90;;;;;;5121840;28;20520;-77
2022/05/23 04:31:55;;;;;;;0.60;0.10;;;17.40;99.90;;;;;;5123416;28;20482;-77
2022/05/23 04:37:08;;;;;;;0.60;0.10;;;17.40;99.90;;;;;;5092843;28;20441;-78
2022/05/23 04:39:36;;;;;;;0.60;0.10;;;17.40;99.90;;;;;;5092904;28;20437;-77
2022/05/23 04:42:04;;;;;;;0.60;0.10;;;17.50;99.90;;;;;;5101008;28;20451;-77
2022/05/23 04:44:33;;;;;;;0.60;0.10;;;17.50;99.90;;;;;;5114591;28;20500;-79
2022/05/23 04:49:50;;;;;;;0.60;0.10;;;17.50;99.90;;;;;;5112058;28;20543;-77
2022/05/23 04:52:22;;;;;;;0.60;0.10;;;17.50;99.90;;;;;;5099298;28;20523;-78
2022/05/23 04:54:50;;;;;;;0.60;0.10;;;17.50;99.90;;;;;;5092281;28;20460;-78
2022/05/23 04:57:19;;;;;;;0.60;0.10;;;17.50;99.90;;;;;;5092347;28;20452;-78
2022/05/23 04:59:47;;;;;;;0.60;0.10;;;17.60;99.90;;;;;;5095157;28;20477;-77
2022/05/23 05:02:16;;;;;;;0.60;0.20;;;17.60;99.90;;;;;;5113598;28;20456;-77
2022/05/23 05:04:44;;;;;;;0.60;0.20;;;17.50;99.90;;;;;;5112023;28;20834;-76
2022/05/23 05:07:12;;;;;;;0.60;0.10;;;17.50;99.90;;;;;;5111718;28;20476;-77
2022/05/23 05:09:39;;;;;;;0.60;0.10;;;17.50;99.90;;;;;;5112755;28;20451;-77
2022/05/23 05:12:12;;;;;;;0.60;0.20;;;17.50;99.90;;;;;;5111543;28;20483;-77
2022/05/23 05:14:40;;;;;;;0.60;0.30;;;17.60;99.90;;;;;;5094667;28;20468;-77
2022/05/23 05:17:08;;;;;;;0.60;0.10;;;17.60;99.90;;;;;;5100330;28;20439;-77
2022/05/23 05:19:38;;;;;;;0.60;0.17;;;17.60;99.90;;;;;;5093202;28;20929;-77
2022/05/23 05:22:06;;;;;;;0.60;0.10;;;17.60;99.90;;;;;;5093288;28;20444;-78
2022/05/23 05:24:34;;;;;;;0.60;0.13;;;17.60;99.90;;;;;;5092918;28;20468;-77
2022/05/23 05:27:02;;;;;;;0.60;0.10;;;17.60;99.90;;;;;;5100202;28;20551;-78
2022/05/23 05:29:30;;;;;;;0.60;0.10;;;17.60;99.90;;;;;;5112715;28;20486;-77
2022/05/23 05:32:02;;;;;;;0.60;0.10;;;17.60;99.90;;;;;;5112162;28;20443;-76
2022/05/23 05:34:36;;;;;;;0.60;0.10;;;17.60;99.90;;;;;;5115057;28;20470;-76
2022/05/23 05:37:13;;;;;;;0.60;0.10;;;17.70;99.90;;;;;;5116835;28;20265;-76
2022/05/23 05:39:44;;;;;;;0.60;0.10;;;17.60;99.90;;;;;;5116510;28;20494;-76
2022/05/23 05:42:17;;;;;;;0.60;0.10;;;17.60;99.90;;;;;;5116894;28;20448;-77
2022/05/23 05:44:48;;;;;;;0.60;0.30;;;17.60;99.90;;;;;;5112632;28;20948;-75
2022/05/23 05:47:19;;;;;;;0.60;0.10;;;17.60;99.90;;;;;;5111165;28;20483;-76
2022/05/23 05:49:59;;;;;;;0.60;0.20;;;17.50;99.90;;;;;;5111274;28;20549;-75
2022/05/23 05:52:32;;;;;;;0.80;0.37;;;17.40;99.90;;;;;;5111343;28;20423;-76
2022/05/23 05:55:02;;;;;;;0.60;0.20;;;17.40;99.90;;;;;;5113062;28;20549;-76
2022/05/23 05:57:30;;;;;;;0.60;0.10;;;17.40;1.00;;;;;;5127366;28;20475;-77
2022/05/23 05:59:58;;;;;;;0.60;0.10;;;17.40;1.00;;;;;;5125766;28;20459;-77
2022/05/23 06:02:26;;;;;;;0.70;0.30;;;17.40;1.00;;;;;;5117262;28;20458;-76
2022/05/23 06:04:54;;;;;;;1.00;0.83;;;17.40;1.00;;;;;;5111015;28;20467;-76
2022/05/23 06:13:03;;;;;;;0.60;0.10;;;17.20;1.00;;;;;;5114743;28;20582;-76
2022/05/23 06:15:31;;;;;;;0.70;0.27;;;17.20;1.00;;;;;;5113428;28;20447;-76
2022/05/23 06:17:59;;;;;;;0.60;0.10;;;17.30;1.00;;;;;;5114294;28;20551;-75
2022/05/23 06:20:28;;;;;;;0.60;0.20;;;17.40;1.00;;;;;;5115290;28;20451;-76
2022/05/23 06:22:56;;;;;;;0.70;0.40;;;17.50;1.00;;;;;;5117388;28;20527;-76
2022/05/23 06:25:25;;;;;;;0.80;0.53;;;17.50;1.00;;;;;;5119709;28;20435;-75
2022/05/23 06:27:54;;;;;;;0.60;0.20;;;17.30;1.00;;;;;;5104886;28;20491;-75
2022/05/23 06:30:23;;;;;;;0.60;0.20;;;17.10;1.00;;;;;;5095455;28;20535;-76
2022/05/23 06:32:52;;;;;;;0.60;0.10;;;17.10;1.00;;;;;;5093557;28;20480;-76
2022/05/23 06:35:21;;;;;;;0.60;0.20;;;17.10;1.00;;;;;;5094517;28;20462;-76
2022/05/23 06:37:49;;;;;;;0.60;0.20;;;17.10;1.00;;;;;;5093994;28;20532;-77
2022/05/23 06:40:17;;;;;;;0.60;0.20;;;17.10;1.00;;;;;;5094514;28;20467;-75
2022/05/23 06:42:47;;;;;;;0.60;0.10;;;17.30;1.00;;;;;;5094073;28;20460;-74
2022/05/23 06:45:15;;;;;;;0.60;0.10;;;17.30;1.00;;;;;;5095413;28;20451;-74
2022/05/23 06:47:43;;;;;;;0.60;0.17;;;17.40;1.00;;;;;;5095648;28;20429;-76
2022/05/23 06:50:13;;;;;;;0.60;0.10;;;17.50;1.00;;;;;;5095643;28;20452;-75
2022/05/23 06:52:40;;;;;;;0.60;0.10;;;17.70;1.00;;;;;;5094291;28;20530;-75
2022/05/23 06:55:09;;;;;;;0.60;0.10;;;17.70;1.00;;;;;;5094898;28;20494;-75
2022/05/23 06:57:37;;;;;;;0.60;0.10;;;17.80;1.00;;;;;;5093364;28;20558;-75
2022/05/23 07:00:10;;;;;;;0.60;0.20;;;18.10;1.00;;;;;;5093936;28;20547;-78
2022/05/23 07:02:38;;;;;;;0.60;0.20;;;18.30;1.00;;;;;;5094501;28;20441;-76
2022/05/23 07:13:23;;;;;;;0.60;0.20;;;18.90;1.00;;;;;;5118598;28;20574;-75
2022/05/23 07:15:53;;;;;;;0.60;0.20;;;19.00;1.00;;;;;;5115342;28;20440;-78
2022/05/23 07:18:22;;;;;;;0.60;0.20;;;19.10;1.00;;;;;;5114430;28;20436;-78
2022/05/23 07:20:49;;;;;;;0.60;0.10;;;19.20;1.00;;;;;;5113941;28;20594;-77
2022/05/23 07:23:17;;;;;;;0.60;0.10;;;19.30;1.00;;;;;;5113368;28;20464;-76
2022/05/23 07:25:46;;;;;;;0.60;0.20;;;19.40;1.00;;;;;;5115054;28;20444;-76
2022/05/23 07:28:14;;;;;;;0.60;0.10;;;19.30;1.00;;;;;;5093831;28;20615;-77
2022/05/23 07:30:43;;;;;;;0.60;0.20;;;19.40;1.00;;;;;;5093262;28;20445;-77
2022/05/23 07:33:12;;;;;;;0.70;0.40;;;19.60;99.90;;;;;;5093088;28;20472;-78
2022/05/23 07:35:40;;;;;;;0.60;0.20;;;19.60;1.00;;;;;;5092890;28;20440;-75
2022/05/23 07:38:09;;;;;;;0.67;0.20;;;19.60;1.00;;;;;;5093078;28;20452;-75
2022/05/23 07:40:37;;;;;;;0.70;0.20;;;19.70;1.00;;;;;;5093878;28;20870;-76
2022/05/23 07:43:05;;;;;;;0.70;0.10;;;19.80;99.90;;;;;;5093750;28;20556;-76
2022/05/23 07:45:33;;;;;;;0.60;0.20;;;19.80;99.90;;;;;;5095454;28;20544;-76
2022/05/23 07:48:01;;;;;;;0.70;0.20;;;19.90;99.90;;;;;;5108274;28;20475;-78
2022/05/23 07:50:30;;;;;;;0.70;0.20;;;19.90;99.90;;;;;;5097317;28;20802;-77
2022/05/23 08:01:15;;;;;;;0.70;0.10;;;20.10;99.90;;;;;;5098414;28;20439;-77
2022/05/23 08:03:42;;;;;;;0.70;0.20;;;20.30;99.90;;;;;;5107244;28;20467;-75
2022/05/23 08:06:12;;;;;;;0.70;0.10;;;20.30;99.90;;;;;;5107771;28;20444;-75
2022/05/23 08:08:40;;;;;;;0.70;0.10;;;20.40;99.90;;;;;;5117897;28;20483;-76
2022/05/23 08:11:09;;;;;;;0.70;0.13;;;20.60;99.90;;;;;;5106486;28;20479;-76
2022/05/23 08:13:38;;;;;;;0.70;0.17;;;20.80;99.90;;;;;;5102386;28;20506;-75
2022/05/23 08:16:07;;;;;;;0.70;0.10;;;20.80;99.90;;;;;;5108404;28;20478;-77
2022/05/23 08:18:35;;;;;;;0.83;0.67;;;20.80;99.90;;;;;;5117696;28;20444;-75
2022/05/23 08:21:03;;;;;;;0.70;0.10;;;20.90;99.90;;;;;;5110268;27;20467;-75
2022/05/23 08:23:32;;;;;;;0.70;0.10;;;21.00;99.90;;;;;;5103016;28;20453;-74
2022/05/23 08:26:00;;;;;;;0.80;0.50;;;21.10;99.90;;;;;;5095422;28;20559;-76
2022/05/23 08:28:28;;;;;;;0.70;0.10;;;21.20;99.90;;;;;;5097156;28;20445;-78
2022/05/23 08:30:57;;;;;;;0.70;0.10;;;21.30;99.90;;;;;;5096481;28;20437;-76
2022/05/23 08:33:26;;;;;;;3.13;0.67;;;21.30;99.90;;;;;;5097831;28;21047;-77
2022/05/23 08:35:54;;;;;;;0.70;0.20;;;21.30;99.90;;;;;;5093883;28;20926;-77
2022/05/23 08:38:22;;;;;;;0.70;0.20;;;21.40;99.90;;;;;;5093056;28;20447;-77
2022/05/23 08:41:01;;;;;;;0.70;0.10;;;21.40;99.90;;;;;;5092148;28;20444;-76
2022/05/23 08:43:37;;;;;;;0.90;0.43;;;21.60;99.90;;;;;;5094626;28;20464;-76
2022/05/23 08:46:08;;;;;;;0.70;0.20;;;21.60;99.90;;;;;;5097908;28;20450;-78
2022/05/23 08:48:43;;;;;;;0.70;0.10;;;21.70;99.90;;;;;;5098801;28;20793;-76
2022/05/23 08:51:17;;;;;;;0.70;0.10;;;21.70;99.90;;;;;;5094035;28;20476;-76
2022/05/23 08:53:50;;;;;;;0.70;0.20;;;21.80;99.90;;;;;;5093891;28;20548;-77
2022/05/23 08:56:24;;;;;;;0.70;0.10;;;21.80;99.90;;;;;;5093057;28;20457;-75
2022/05/23 08:58:55;;;;;;;0.70;0.10;;;21.80;99.90;;;;;;5094104;28;20451;-76
2022/05/23 09:01:26;;;;;;;0.70;0.10;;;21.80;99.90;;;;;;5094374;28;20880;-76
2022/05/23 09:04:01;;;;;;;0.70;0.10;;;22.00;99.90;;;;;;5094603;28;20511;-77
2022/05/23 09:06:34;;;;;;;0.70;0.20;;;22.00;99.90;;;;;;5093648;28;20809;-75
2022/05/23 09:09:10;;;;;;;0.70;0.10;;;22.10;99.90;;;;;;5093222;28;20233;-78
2022/05/23 09:11:42;;;;;;;0.70;0.20;;;22.10;99.90;;;;;;5093372;28;20866;-77
2022/05/23 09:14:12;;;;;;;0.70;0.20;;;22.20;99.90;;;;;;5091238;28;20465;-75
2022/05/23 09:16:42;;;;;;;0.70;0.10;;;22.30;99.90;;;;;;5090127;28;20535;-77
2022/05/23 09:19:16;;;;;;;0.70;0.20;;;22.40;99.90;;;;;;5091148;28;20594;-70
2022/05/23 09:24:48;;;;;;;0.70;0.20;;;21.60;99.90;;;;;;5028444;28;20479;-77
2022/05/23 09:27:24;;;;;;;0.70;0.10;;;22.60;99.90;;;;;;5090187;28;20447;-77
2022/05/23 09:29:54;;;;;;;0.70;0.20;;;22.70;99.90;;;;;;5112373;28;20467;-79
2022/05/23 09:32:25;;;;;;;0.90;0.40;;;22.70;99.90;;;;;;5111338;28;20443;-78
2022/05/23 09:34:57;;;;;;;0.70;0.20;;;22.70;99.90;;;;;;5113118;28;20468;-74
2022/05/23 09:37:36;;;;;;;0.70;0.30;;;22.60;99.90;;;;;;5117660;28;20444;-75
2022/05/23 09:40:08;;;;;;;0.70;0.10;;;22.60;99.90;;;;;;5117554;28;20442;-75
2022/05/23 09:48:22;;;;;;;0.70;0.20;;;22.50;99.90;;;;;;5115973;28;20420;-76
2022/05/23 09:50:55;;;;;;;0.70;0.20;;;22.60;99.90;;;;;;5116571;28;20884;-75
2022/05/23 09:53:27;;;;;;;0.70;0.10;;;22.70;99.90;;;;;;5109447;28;20476;-72
2022/05/23 09:56:38;;;;;;;0.70;0.10;;;22.70;99.90;;;;;;5116265;28;20440;-73
2022/05/23 09:59:20;;;;;;;0.70;0.17;;;22.80;99.90;;;;;;5100634;28;20531;-73
2022/05/23 10:01:47;;;;;;;0.70;0.20;;;22.90;99.90;;;;;;5120068;28;20921;-73
2022/05/23 10:04:17;;;;;;;0.70;0.10;;;23.10;99.90;;;;;;5118989;28;20554;-72
2022/05/23 10:06:48;;;;;;;0.70;0.17;;;23.20;99.90;;;;;;5115651;28;20202;-72
2022/05/23 10:09:26;;;;;;;0.70;0.13;;;23.30;99.90;;;;;;5109277;28;20471;-75
2022/05/23 10:11:57;;;;;;;0.70;0.20;;;23.30;99.90;;;;;;5104492;28;20760;-72
2022/05/23 10:14:37;;;;;;;0.70;0.20;;;23.40;99.90;;;;;;5096313;28;20460;-75
2022/05/23 10:17:05;;;;;;;0.70;0.20;;;23.50;99.90;;;;;;5095624;28;20440;-72
2022/05/23 10:19:35;;;;;;;0.70;0.10;;;23.50;99.90;;;;;;5095711;28;20439;-73
2022/05/23 10:22:18;;;;;;;0.70;0.10;;;23.50;99.90;;;;;;5095281;28;20902;-76
2022/05/23 10:24:55;;;;;;;0.87;0.50;;;23.60;99.90;;;;;;5094578;28;20444;-73
2022/05/23 10:27:34;;;;;;;0.70;0.20;;;23.40;99.90;;;;;;5099175;28;20448;-71
2022/05/23 10:30:07;;;;;;;0.70;0.20;;;23.30;99.90;;;;;;5094828;28;20861;-76
2022/05/23 10:32:41;;;;;;;0.70;0.20;;;23.40;99.90;;;;;;5096018;28;20456;-72
2022/05/23 10:35:17;;;;;;;0.70;0.10;;;23.40;99.90;;;;;;5102687;28;21180;-73
2022/05/23 10:37:46;;;;;;;0.70;0.10;;;23.50;99.90;;;;;;5113127;28;20462;-70
2022/05/23 10:43:18;;;;;;;0.70;0.20;;;23.80;99.90;;;;;;5119471;28;20463;-73
2022/05/23 10:45:49;;;;;;;0.70;0.10;;;23.80;99.90;;;;;;5098363;28;20999;-73
2022/05/23 10:48:33;;;;;;;0.70;0.20;;;24.00;99.90;;;;;;5104056;28;20536;-73
2022/05/23 10:51:07;;;;;;;0.80;0.43;;;24.00;99.90;;;;;;5100814;28;20498;-71
2022/05/23 10:53:54;;;;;;;0.70;0.10;;;23.90;99.90;;;;;;5094045;28;20468;-72
2022/05/23 10:56:32;;;;;;;0.70;0.30;;;24.00;99.90;;;;;;5093085;28;20543;-71
2022/05/23 10:59:07;;;;;;;0.70;0.10;;;24.00;99.90;;;;;;5097947;28;20498;-70
2022/05/23 11:02:02;;;;;;;0.70;0.10;;;24.20;99.90;;;;;;5097172;28;20440;-71
2022/05/23 11:04:41;;;;;;;0.70;0.10;;;24.40;99.90;;;;;;5097461;28;20452;-72
2022/05/23 11:07:26;;;;;;;0.70;0.30;;;24.50;99.90;;;;;;5095315;28;20464;-71
2022/05/23 11:10:01;;;;;;;0.90;0.80;;;24.60;99.90;;;;;;5105213;28;20447;-73
2022/05/23 11:12:58;;;;;;;114.73;13.23;;;24.70;99.90;;;;;;5104141;28;20456;-72
2022/05/23 11:15:36;;;;;;;0.70;0.10;;;24.70;99.90;;;;;;5098585;28;20451;-71
2022/05/23 11:18:20;;;;;;;0.70;0.10;;;24.80;99.90;;;;;;5094405;28;20447;-72
2022/05/23 11:20:52;;;;;;;0.70;0.20;;;24.90;99.90;;;;;;5099425;28;20460;-71
2022/05/23 11:23:25;;;;;;;0.70;0.17;;;25.10;99.90;;;;;;5110241;28;20567;-72
2022/05/23 11:25:59;;;;;;;0.70;0.10;;;25.10;99.90;;;;;;5102156;28;20922;-71
2022/05/23 11:34:06;;;;;;;0.70;0.17;;;25.00;99.90;;;;;;5102113;27;20556;-74
2022/05/23 11:36:45;;;;;;;0.70;0.10;;;25.00;99.90;;;;;;5114843;27;20593;-77
2022/05/23 11:39:49;;;;;;;0.70;0.10;;;25.00;99.90;;;;;;5099200;28;20965;-78
2022/05/23 11:42:29;;;;;;;0.70;0.10;;;25.20;99.90;;;;;;5105608;28;20552;-79
2022/05/23 11:48:35;;;;;;;0.70;0.20;;;25.30;99.90;;;;;;5083471;28;20468;-78
2022/05/23 11:51:16;;;;;;;0.70;0.40;;;25.20;99.90;;;;;;5100129;28;20474;-77
2022/05/23 11:53:55;;;;;;;0.70;0.13;;;25.20;99.90;;;;;;5115209;28;20539;-78
2022/05/23 11:56:55;;;;;;;0.70;0.20;;;25.20;99.90;;;;;;5116962;28;20447;-79
2022/05/23 12:00:08;;;;;;;0.70;0.20;;;25.30;99.90;;;;;;5063767;28;20806;-81
2022/05/23 12:02:39;;;;;;;0.70;0.10;;;25.30;99.90;;;;;;5054394;28;20545;-78
2022/05/23 12:05:31;;;;;;;0.70;0.20;;;25.30;99.90;;;;;;5052424;28;20472;-77
2022/05/23 12:08:04;;;;;;;0.70;0.10;;;25.40;99.90;;;;;;5095259;28;20439;-76
2022/05/23 12:10:58;;;;;;;0.70;0.10;;;25.40;99.90;;;;;;5113120;28;21000;-76
2022/05/23 12:13:39;;;;;;;0.70;0.10;;;25.40;99.90;;;;;;5099867;28;20463;-77
2022/05/23 12:16:43;;;;;;;0.70;0.20;;;25.40;99.90;;;;;;5112104;28;21043;-78
2022/05/23 12:19:20;;;;;;;0.70;0.20;;;25.30;99.90;;;;;;5107494;28;20979;-74
2022/05/23 12:21:51;;;;;;;0.70;0.10;;;25.30;99.90;;;;;;5087374;28;20999;-79
2022/05/23 12:24:32;;;;;;;0.70;0.20;;;25.40;99.90;;;;;;5094047;28;20814;-79
2022/05/23 12:27:28;;;;;;;1.80;1.70;;;25.40;99.90;;;;;;5092908;28;20451;-78
2022/05/23 12:30:29;;;;;;;0.90;0.47;;;25.40;99.90;;;;;;5093289;28;20448;-78
2022/05/23 12:33:05;;;;;;;1.83;0.80;;;25.60;99.90;;;;;;5086776;28;20861;-78
2022/05/23 12:35:45;;;;;;;0.70;0.10;;;25.60;99.90;;;;;;5093187;28;20436;-77
2022/05/23 12:38:24;;;;;;;0.70;0.13;;;25.60;99.90;;;;;;5094009;28;20464;-78
2022/05/23 12:41:00;;;;;;;0.70;0.20;;;25.70;99.90;;;;;;5092518;28;20472;-76
2022/05/23 12:43:41;;;;;;;0.70;0.10;;;25.70;99.90;;;;;;5083871;28;20491;-79
2022/05/23 12:46:22;;;;;;;1.00;0.30;;;25.50;99.90;;;;;;5074535;28;20516;-77
2022/05/23 12:49:15;;;;;;;0.70;0.20;;;25.40;99.90;;;;;;5075182;28;20538;-79
2022/05/23 12:51:50;;;;;;;0.70;0.20;;;25.10;99.90;;;;;;5073947;28;20493;-79
2022/05/23 12:54:36;;;;;;;7.37;4.53;;;25.10;99.90;;;;;;5074244;28;20455;-78
2022/05/23 12:57:58;;;;;;;0.70;0.20;;;25.00;99.90;;;;;;5079993;28;20799;-77
2022/05/23 13:00:33;;;;;;;0.70;0.20;;;25.00;99.90;;;;;;5009943;28;20444;-77
2022/05/23 13:03:08;;;;;;;1.13;0.90;;;24.00;99.90;;;;;;5090423;28;20559;-76
2022/05/23 13:05:41;;;;;;;0.70;0.10;;;24.90;99.90;;;;;;5093191;28;20456;-77
2022/05/23 13:08:15;;;;;;;1.07;0.80;;;24.80;99.90;;;;;;5094263;28;20845;-79
2022/05/23 13:10:44;;;;;;;0.80;0.33;;;24.80;99.90;;;;;;5093744;28;20440;-78
2022/05/23 13:13:25;;;;;;;0.70;0.20;;;24.60;99.90;;;;;;5096957;28;20898;-77
2022/05/23 13:15:53;;;;;;;0.70;0.40;;;24.50;99.90;;;;;;5098336;28;20476;-78
2022/05/23 13:24:03;;;;;;;0.90;0.67;;;24.60;99.90;;;;;;5091415;28;20448;-76
2022/05/23 13:26:31;;;;;;;1.00;0.50;;;24.50;99.90;;;;;;5091147;28;20441;-75
2022/05/23 13:29:13;;;;;;;0.70;0.10;;;24.50;99.90;;;;;;5093497;28;20449;-78
2022/05/23 13:31:44;;;;;;;0.70;0.10;;;24.50;99.90;;;;;;5092462;28;20500;-78
2022/05/23 13:34:17;;;;;;;0.70;0.20;;;24.50;99.90;;;;;;5093302;28;20444;-78
2022/05/23 13:36:48;;;;;;;0.80;0.40;;;24.60;99.90;;;;;;5091431;28;20456;-78
2022/05/23 13:39:18;;;;;;;2.00;1.90;;;24.40;99.90;;;;;;5093763;28;20821;-78
2022/05/23 13:41:46;;;;;;;0.70;0.20;;;24.10;99.90;;;;;;5096304;28;20859;-78
2022/05/23 13:44:23;;;;;;;0.70;0.10;;;24.40;99.90;;;;;;5093547;28;20461;-78
2022/05/23 13:46:56;;;;;;;0.70;0.30;;;24.40;99.90;;;;;;5095636;28;20470;-78
2022/05/23 13:49:29;;;;;;;0.70;0.20;;;24.50;99.90;;;;;;5096833;28;20453;-79
2022/05/23 13:52:01;;;;;;;0.90;0.37;;;24.60;99.90;;;;;;5094124;28;20480;-79
2022/05/23 13:54:35;;;;;;;0.70;0.10;;;24.60;99.90;;;;;;5092783;28;20476;-77
2022/05/23 13:57:09;;;;;;;0.70;0.20;;;24.70;99.90;;;;;;5091902;28;20799;-77
2022/05/23 13:59:44;;;;;;;0.70;0.17;;;24.80;99.90;;;;;;5092685;28;20447;-78
2022/05/23 14:02:17;;;;;;;0.90;0.30;;;24.90;99.90;;;;;;5093415;28;20467;-77
2022/05/23 14:04:47;;;;;;;0.70;0.10;;;24.90;99.90;;;;;;5091320;28;20480;-76
2022/05/23 14:07:17;;;;;;;0.70;0.20;;;24.90;99.90;;;;;;5092389;28;20481;-77
2022/05/23 14:09:48;;;;;;;1.07;0.30;;;25.10;99.90;;;;;;5093368;28;20444;-78
2022/05/23 14:12:21;;;;;;;0.80;0.30;;;25.20;99.90;;;;;;5092858;28;21031;-79
2022/05/23 14:14:55;;;;;;;0.70;0.10;;;25.20;99.90;;;;;;5091745;28;20456;-78
2022/05/23 14:17:29;;;;;;;0.70;0.13;;;25.20;99.90;;;;;;5092209;28;20815;-76
2022/05/23 14:20:13;;;;;;;0.83;0.50;;;25.30;99.90;;;;;;5092247;28;20496;-77
2022/05/23 14:22:42;;;;;;;0.70;0.10;;;25.40;99.90;;;;;;5092488;28;21042;-77
2022/05/23 14:25:21;;;;;;;0.70;0.20;;;25.50;99.90;;;;;;5090489;28;20794;-77